sensor_id;sensor_type;location;lat;lon;timestamp;pressure;altitude;pressure_sealevel;temperature;humidity
64404;BME280;50726;54.912;-8.392;2022-09-09T00:01:37;100110.22;;;39.76;59.98
64404;BME280;50726;54.912;-8.392;2022-09-09T00:04:26;100130.72;;;39.01;61.51
64404;BME280;50726;54.912;-8.392;2022-09-09T00:09:21;100118.47;;;37.25;66.71
64404;BME280;50726;54.912;-8.392;2022-09-09T00:12:10;100127.00;;;38.41;64.14
64404;BME280;50726;54.912;-8.392;2022-09-09T00:14:42;100126.75;;;37.93;64.05
64404;BME280;50726;54.912;-8.392;2022-09-09T00:17:17;100115.47;;;37.90;64.85
64404;BME280;50726;54.912;-8.392;2022-09-09T00:22:28;100124.91;;;36.80;66.15
64404;BME280;50726;54.912;-8.392;2022-09-09T00:25:08;100114.38;;;37.09;65.07
64404;BME280;50726;54.912;-8.392;2022-09-09T00:27:45;100136.16;;;37.79;64.21
64404;BME280;50726;54.912;-8.392;2022-09-09T00:32:41;100133.59;;;37.65;65.18
64404;BME280;50726;54.912;-8.392;2022-09-09T00:37:35;100124.19;;;36.91;66.71
64404;BME280;50726;54.912;-8.392;2022-09-09T00:40:17;100117.25;;;37.40;65.83
64404;BME280;50726;54.912;-8.392;2022-09-09T00:42:43;100111.22;;;35.56;69.00
64404;BME280;50726;54.912;-8.392;2022-09-09T00:47:55;100102.19;;;36.61;69.24
64404;BME280;50726;54.912;-8.392;2022-09-09T00:50:49;100123.09;;;36.28;69.79
64404;BME280;50726;54.912;-8.392;2022-09-09T00:53:39;100127.47;;;37.88;66.14
64404;BME280;50726;54.912;-8.392;2022-09-09T00:56:31;100129.16;;;37.27;66.45
64404;BME280;50726;54.912;-8.392;2022-09-09T01:01:46;100119.88;;;35.99;71.51
64404;BME280;50726;54.912;-8.392;2022-09-09T01:04:23;100130.13;;;37.07;69.90
64404;BME280;50726;54.912;-8.392;2022-09-09T01:07:13;100124.25;;;37.10;68.91
64404;BME280;50726;54.912;-8.392;2022-09-09T01:09:57;100132.09;;;38.49;65.70
64404;BME280;50726;54.912;-8.392;2022-09-09T01:15:22;100131.59;;;38.59;65.17
64404;BME280;50726;54.912;-8.392;2022-09-09T01:17:52;100140.03;;;37.01;69.19
64404;BME280;50726;54.912;-8.392;2022-09-09T01:20:26;100131.63;;;37.28;69.23
64404;BME280;50726;54.912;-8.392;2022-09-09T01:26:21;100141.19;;;36.87;69.67
64404;BME280;50726;54.912;-8.392;2022-09-09T01:28:50;100138.06;;;36.51;72.50
64404;BME280;50726;54.912;-8.392;2022-09-09T01:31:34;100132.06;;;37.88;70.28
64404;BME280;50726;54.912;-8.392;2022-09-09T01:34:02;100136.97;;;38.17;68.09
64404;BME280;50726;54.912;-8.392;2022-09-09T01:39:17;100127.88;;;38.53;66.54
64404;BME280;50726;54.912;-8.392;2022-09-09T01:41:44;100131.03;;;37.26;69.83
64404;BME280;50726;54.912;-8.392;2022-09-09T01:44:12;100134.66;;;37.83;68.28
64404;BME280;50726;54.912;-8.392;2022-09-09T01:46:37;100147.41;;;35.70;72.66
64404;BME280;50726;54.912;-8.392;2022-09-09T01:49:05;100133.25;;;37.11;71.58
64404;BME280;50726;54.912;-8.392;2022-09-09T01:51:32;100129.53;;;36.40;74.14
64404;BME280;50726;54.912;-8.392;2022-09-09T01:53:58;100130.06;;;37.58;70.58
64404;BME280;50726;54.912;-8.392;2022-09-09T01:59:14;100131.56;;;37.35;70.46
64404;BME280;50726;54.912;-8.392;2022-09-09T02:04:33;100121.53;;;38.10;68.58
64404;BME280;50726;54.912;-8.392;2022-09-09T02:07:01;100134.41;;;35.59;76.69
64404;BME280;50726;54.912;-8.392;2022-09-09T02:09:29;100126.72;;;36.54;74.81
64404;BME280;50726;54.912;-8.392;2022-09-09T02:12:14;100125.22;;;37.41;72.87
64404;BME280;50726;54.912;-8.392;2022-09-09T02:14:47;100122.00;;;38.07;70.94
64404;BME280;50726;54.912;-8.392;2022-09-09T02:17:19;100126.06;;;36.91;72.20
64404;BME280;50726;54.912;-8.392;2022-09-09T02:19:50;100120.06;;;36.50;74.55
64404;BME280;50726;54.912;-8.392;2022-09-09T02:22:19;100123.19;;;36.14;78.12
64404;BME280;50726;54.912;-8.392;2022-09-09T02:24:48;100116.28;;;37.90;71.06
64404;BME280;50726;54.912;-8.392;2022-09-09T02:27:16;100125.50;;;38.26;71.59
64404;BME280;50726;54.912;-8.392;2022-09-09T02:29:44;100126.34;;;38.58;68.51
64404;BME280;50726;54.912;-8.392;2022-09-09T02:32:15;100123.28;;;34.52;81.86
64404;BME280;50726;54.912;-8.392;2022-09-09T02:34:50;100125.22;;;35.67;79.39
64404;BME280;50726;54.912;-8.392;2022-09-09T02:37:19;100130.28;;;36.87;77.78
64404;BME280;50726;54.912;-8.392;2022-09-09T02:39:46;100129.31;;;37.06;74.40
64404;BME280;50726;54.912;-8.392;2022-09-09T02:42:13;100127.34;;;37.39;74.64
64404;BME280;50726;54.912;-8.392;2022-09-09T02:44:40;100132.38;;;36.13;80.85
64404;BME280;50726;54.912;-8.392;2022-09-09T02:47:35;100126.53;;;36.17;80.58
64404;BME280;50726;54.912;-8.392;2022-09-09T02:50:13;100124.66;;;36.81;79.71
64404;BME280;50726;54.912;-8.392;2022-09-09T02:55:24;100134.06;;;37.81;74.37
64404;BME280;50726;54.912;-8.392;2022-09-09T02:57:56;100135.59;;;37.51;75.19
64404;BME280;50726;54.912;-8.392;2022-09-09T03:00:25;100132.66;;;37.02;76.74
64404;BME280;50726;54.912;-8.392;2022-09-09T03:02:50;100139.84;;;34.71;84.58
64404;BME280;50726;54.912;-8.392;2022-09-09T03:05:16;100132.50;;;35.59;82.78
64404;BME280;50726;54.912;-8.392;2022-09-09T03:07:42;100145.00;;;34.46;88.08
64404;BME280;50726;54.912;-8.392;2022-09-09T03:10:08;100142.50;;;32.66;94.23
64404;BME280;50726;54.912;-8.392;2022-09-09T03:12:35;100142.59;;;33.80;90.38
64404;BME280;50726;54.912;-8.392;2022-09-09T03:15:01;100126.19;;;34.31;86.88
64404;BME280;50726;54.912;-8.392;2022-09-09T03:17:27;100137.16;;;35.05;85.53
64404;BME280;50726;54.912;-8.392;2022-09-09T03:19:53;100128.00;;;36.12;81.88
64404;BME280;50726;54.912;-8.392;2022-09-09T03:22:20;100132.53;;;36.25;78.69
64404;BME280;50726;54.912;-8.392;2022-09-09T03:24:47;100133.44;;;36.12;79.91
64404;BME280;50726;54.912;-8.392;2022-09-09T03:27:13;100133.00;;;35.02;83.32
64404;BME280;50726;54.912;-8.392;2022-09-09T03:29:39;100137.25;;;35.98;81.55
64404;BME280;50726;54.912;-8.392;2022-09-09T03:32:05;100125.03;;;36.21;80.08
64404;BME280;50726;54.912;-8.392;2022-09-09T03:34:31;100135.69;;;36.22;81.63
64404;BME280;50726;54.912;-8.392;2022-09-09T03:36:57;100127.72;;;35.48;83.93
64404;BME280;50726;54.912;-8.392;2022-09-09T03:39:23;100142.81;;;34.14;88.69
64404;BME280;50726;54.912;-8.392;2022-09-09T03:41:48;100145.31;;;35.32;85.96
64404;BME280;50726;54.912;-8.392;2022-09-09T03:44:14;100144.41;;;34.01;88.27
64404;BME280;50726;54.912;-8.392;2022-09-09T03:46:40;100134.13;;;34.39;87.32
64404;BME280;50726;54.912;-8.392;2022-09-09T03:49:05;100139.28;;;33.50;89.26
64404;BME280;50726;54.912;-8.392;2022-09-09T03:51:31;100136.72;;;34.74;85.66
64404;BME280;50726;54.912;-8.392;2022-09-09T03:54:02;100137.72;;;35.88;83.58
64404;BME280;50726;54.912;-8.392;2022-09-09T03:56:30;100150.56;;;35.27;84.86
64404;BME280;50726;54.912;-8.392;2022-09-09T03:58:57;100139.66;;;35.54;81.93
64404;BME280;50726;54.912;-8.392;2022-09-09T04:01:23;100147.50;;;33.98;87.70
64404;BME280;50726;54.912;-8.392;2022-09-09T04:03:48;100138.44;;;35.09;85.17
64404;BME280;50726;54.912;-8.392;2022-09-09T04:06:19;100139.63;;;35.74;84.70
64404;BME280;50726;54.912;-8.392;2022-09-09T04:08:46;100148.44;;;34.95;86.32
64404;BME280;50726;54.912;-8.392;2022-09-09T04:11:15;100140.09;;;35.30;84.43
64404;BME280;50726;54.912;-8.392;2022-09-09T04:13:40;100137.72;;;34.53;86.67
64404;BME280;50726;54.912;-8.392;2022-09-09T04:16:09;100148.00;;;34.64;87.92
64404;BME280;50726;54.912;-8.392;2022-09-09T04:18:35;100146.16;;;35.05;84.09
64404;BME280;50726;54.912;-8.392;2022-09-09T04:21:04;100146.59;;;35.23;86.23
64404;BME280;50726;54.912;-8.392;2022-09-09T04:23:31;100148.41;;;34.68;86.57
64404;BME280;50726;54.912;-8.392;2022-09-09T04:25:59;100152.19;;;34.67;87.50
64404;BME280;50726;54.912;-8.392;2022-09-09T04:28:29;100148.84;;;35.05;87.04
64404;BME280;50726;54.912;-8.392;2022-09-09T04:31:04;100146.41;;;36.56;80.85
64404;BME280;50726;54.912;-8.392;2022-09-09T04:33:30;100147.78;;;36.33;80.84
64404;BME280;50726;54.912;-8.392;2022-09-09T04:35:57;100149.34;;;36.16;80.35
64404;BME280;50726;54.912;-8.392;2022-09-09T04:38:22;100161.41;;;35.60;82.71
64404;BME280;50726;54.912;-8.392;2022-09-09T04:40:49;100151.72;;;35.92;80.79
64404;BME280;50726;54.912;-8.392;2022-09-09T04:43:17;100150.81;;;36.05;80.15
64404;BME280;50726;54.912;-8.392;2022-09-09T04:45:47;100163.44;;;36.45;79.70
64404;BME280;50726;54.912;-8.392;2022-09-09T04:48:13;100159.78;;;36.19;80.49
64404;BME280;50726;54.912;-8.392;2022-09-09T04:50:39;100168.16;;;37.71;77.85
64404;BME280;50726;54.912;-8.392;2022-09-09T04:53:06;100172.16;;;36.08;79.44
64404;BME280;50726;54.912;-8.392;2022-09-09T04:55:33;100163.44;;;37.34;76.50
64404;BME280;50726;54.912;-8.392;2022-09-09T04:58:07;100169.34;;;37.94;74.05
64404;BME280;50726;54.912;-8.392;2022-09-09T05:00:37;100174.59;;;37.01;76.51
64404;BME280;50726;54.912;-8.392;2022-09-09T05:03:04;100179.06;;;36.63;76.09
64404;BME280;50726;54.912;-8.392;2022-09-09T05:05:33;100168.22;;;37.20;76.80
64404;BME280;50726;54.912;-8.392;2022-09-09T05:08:02;100165.81;;;37.50;73.22
64404;BME280;50726;54.912;-8.392;2022-09-09T05:10:28;100175.13;;;37.86;72.65
64404;BME280;50726;54.912;-8.392;2022-09-09T05:12:54;100174.72;;;38.69;70.93
64404;BME280;50726;54.912;-8.392;2022-09-09T05:15:20;100170.59;;;36.78;72.99
64404;BME280;50726;54.912;-8.392;2022-09-09T05:17:48;100175.69;;;36.67;73.99
64404;BME280;50726;54.912;-8.392;2022-09-09T05:20:14;100173.44;;;37.85;72.41
64404;BME280;50726;54.912;-8.392;2022-09-09T05:22:39;100172.81;;;36.49;74.94
64404;BME280;50726;54.912;-8.392;2022-09-09T05:25:06;100172.03;;;37.38;72.96
64404;BME280;50726;54.912;-8.392;2022-09-09T05:27:36;100180.28;;;37.50;71.60
64404;BME280;50726;54.912;-8.392;2022-09-09T05:30:03;100185.41;;;37.65;71.76
64404;BME280;50726;54.912;-8.392;2022-09-09T05:32:30;100177.72;;;37.62;72.18
64404;BME280;50726;54.912;-8.392;2022-09-09T05:34:59;100177.63;;;37.87;70.87
64404;BME280;50726;54.912;-8.392;2022-09-09T05:37:25;100187.25;;;36.56;72.93
64404;BME280;50726;54.912;-8.392;2022-09-09T05:39:51;100178.31;;;37.13;75.32
64404;BME280;50726;54.912;-8.392;2022-09-09T05:42:18;100168.84;;;37.41;73.47
64404;BME280;50726;54.912;-8.392;2022-09-09T05:44:46;100169.88;;;37.21;71.96
64404;BME280;50726;54.912;-8.392;2022-09-09T05:47:11;100180.63;;;35.79;76.45
64404;BME280;50726;54.912;-8.392;2022-09-09T05:49:37;100186.47;;;34.95;80.05
64404;BME280;50726;54.912;-8.392;2022-09-09T05:52:02;100190.28;;;35.14;81.14
64404;BME280;50726;54.912;-8.392;2022-09-09T05:54:29;100198.16;;;34.89;81.08
64404;BME280;50726;54.912;-8.392;2022-09-09T05:56:55;100198.47;;;36.27;76.60
64404;BME280;50726;54.912;-8.392;2022-09-09T05:59:20;100205.28;;;35.98;78.55
64404;BME280;50726;54.912;-8.392;2022-09-09T06:01:48;100209.53;;;36.39;77.52
64404;BME280;50726;54.912;-8.392;2022-09-09T06:04:14;100207.06;;;36.77;74.60
64404;BME280;50726;54.912;-8.392;2022-09-09T06:06:39;100210.22;;;38.01;73.60
64404;BME280;50726;54.912;-8.392;2022-09-09T06:09:09;100216.72;;;37.63;72.05
64404;BME280;50726;54.912;-8.392;2022-09-09T06:11:38;100224.38;;;37.72;72.23
64404;BME280;50726;54.912;-8.392;2022-09-09T06:14:04;100216.66;;;36.86;74.35
64404;BME280;50726;54.912;-8.392;2022-09-09T06:16:32;100229.34;;;37.57;75.00
64404;BME280;50726;54.912;-8.392;2022-09-09T06:18:59;100231.78;;;37.40;74.50
64404;BME280;50726;54.912;-8.392;2022-09-09T06:21:33;100248.88;;;37.98;73.46
64404;BME280;50726;54.912;-8.392;2022-09-09T06:23:59;100234.78;;;37.31;71.83
64404;BME280;50726;54.912;-8.392;2022-09-09T06:26:32;100249.97;;;38.34;70.17
64404;BME280;50726;54.912;-8.392;2022-09-09T06:28:59;100251.16;;;37.57;71.76
64404;BME280;50726;54.912;-8.392;2022-09-09T06:31:26;100259.72;;;37.35;72.15
64404;BME280;50726;54.912;-8.392;2022-09-09T06:33:56;100260.59;;;38.24;72.75
64404;BME280;50726;54.912;-8.392;2022-09-09T06:36:24;100258.66;;;38.43;71.56
64404;BME280;50726;54.912;-8.392;2022-09-09T06:38:51;100268.66;;;38.87;68.30
64404;BME280;50726;54.912;-8.392;2022-09-09T06:41:18;100263.78;;;38.21;70.51
64404;BME280;50726;54.912;-8.392;2022-09-09T06:43:45;100271.63;;;36.76;74.96
64404;BME280;50726;54.912;-8.392;2022-09-09T06:46:16;100270.22;;;38.08;71.04
64404;BME280;50726;54.912;-8.392;2022-09-09T06:48:44;100277.28;;;38.16;71.67
64404;BME280;50726;54.912;-8.392;2022-09-09T06:51:16;100271.06;;;37.00;76.83
64404;BME280;50726;54.912;-8.392;2022-09-09T06:53:44;100267.47;;;38.08;72.47
64404;BME280;50726;54.912;-8.392;2022-09-09T06:58:40;100272.41;;;39.04;69.39
64404;BME280;50726;54.912;-8.392;2022-09-09T07:01:17;100276.03;;;35.71;78.79
64404;BME280;50726;54.912;-8.392;2022-09-09T07:03:47;100288.56;;;36.26;79.66
64404;BME280;50726;54.912;-8.392;2022-09-09T07:06:20;100288.91;;;36.43;77.79
64404;BME280;50726;54.912;-8.392;2022-09-09T07:08:53;100288.56;;;38.38;73.75
64404;BME280;50726;54.912;-8.392;2022-09-09T07:11:20;100293.28;;;38.12;73.73
64404;BME280;50726;54.912;-8.392;2022-09-09T07:13:47;100297.78;;;37.99;73.15
64404;BME280;50726;54.912;-8.392;2022-09-09T07:16:16;100299.38;;;37.88;74.10
64404;BME280;50726;54.912;-8.392;2022-09-09T07:18:43;100301.38;;;38.00;73.69
64404;BME280;50726;54.912;-8.392;2022-09-09T07:21:13;100293.72;;;37.58;73.48
64404;BME280;50726;54.912;-8.392;2022-09-09T07:23:40;100305.44;;;37.91;74.55
64404;BME280;50726;54.912;-8.392;2022-09-09T07:26:14;100304.72;;;38.77;71.48
64404;BME280;50726;54.912;-8.392;2022-09-09T07:28:41;100304.59;;;37.00;75.89
64404;BME280;50726;54.912;-8.392;2022-09-09T07:31:08;100309.06;;;38.66;71.15
64404;BME280;50726;54.912;-8.392;2022-09-09T07:33:39;100310.44;;;37.43;74.42
64404;BME280;50726;54.912;-8.392;2022-09-09T07:36:26;100314.13;;;37.81;75.10
64404;BME280;50726;54.912;-8.392;2022-09-09T07:38:57;100311.16;;;38.26;74.96
64404;BME280;50726;54.912;-8.392;2022-09-09T07:41:32;100313.09;;;37.50;76.00
64404;BME280;50726;54.912;-8.392;2022-09-09T07:44:11;100306.88;;;39.05;71.14
64404;BME280;50726;54.912;-8.392;2022-09-09T07:46:37;100317.53;;;38.20;72.10
64404;BME280;50726;54.912;-8.392;2022-09-09T07:49:05;100324.69;;;38.21;72.14
64404;BME280;50726;54.912;-8.392;2022-09-09T07:51:36;100323.69;;;38.34;72.51
64404;BME280;50726;54.912;-8.392;2022-09-09T07:54:07;100314.84;;;39.61;67.07
64404;BME280;50726;54.912;-8.392;2022-09-09T07:56:34;100317.09;;;38.23;69.66
64404;BME280;50726;54.912;-8.392;2022-09-09T07:59:00;100321.44;;;37.55;71.27
64404;BME280;50726;54.912;-8.392;2022-09-09T08:01:38;100330.44;;;39.49;69.02
64404;BME280;50726;54.912;-8.392;2022-09-09T08:04:13;100337.72;;;38.94;67.59
64404;BME280;50726;54.912;-8.392;2022-09-09T08:06:45;100332.72;;;38.35;70.06
64404;BME280;50726;54.912;-8.392;2022-09-09T08:09:25;100345.94;;;38.75;69.09
64404;BME280;50726;54.912;-8.392;2022-09-09T08:11:54;100332.41;;;39.96;67.54
64404;BME280;50726;54.912;-8.392;2022-09-09T08:14:22;100340.09;;;39.76;66.10
64404;BME280;50726;54.912;-8.392;2022-09-09T08:16:49;100335.69;;;39.74;66.93
64404;BME280;50726;54.912;-8.392;2022-09-09T08:19:15;100338.75;;;39.12;66.83
64404;BME280;50726;54.912;-8.392;2022-09-09T08:21:44;100337.50;;;40.93;64.40
64404;BME280;50726;54.912;-8.392;2022-09-09T08:24:10;100345.09;;;40.91;62.58
64404;BME280;50726;54.912;-8.392;2022-09-09T08:26:39;100347.53;;;39.99;65.13
64404;BME280;50726;54.912;-8.392;2022-09-09T08:29:08;100353.31;;;39.24;68.52
64404;BME280;50726;54.912;-8.392;2022-09-09T08:31:55;100347.31;;;41.87;60.48
64404;BME280;50726;54.912;-8.392;2022-09-09T08:34:23;100345.72;;;40.05;62.97
64404;BME280;50726;54.912;-8.392;2022-09-09T08:36:51;100358.34;;;38.90;66.20
64404;BME280;50726;54.912;-8.392;2022-09-09T08:39:19;100358.97;;;38.36;68.43
64404;BME280;50726;54.912;-8.392;2022-09-09T08:50:29;100358.59;;;39.07;69.22
64404;BME280;50726;54.912;-8.392;2022-09-09T08:53:17;100375.09;;;39.00;66.96
64404;BME280;50726;54.912;-8.392;2022-09-09T08:55:54;100376.16;;;38.18;70.70
64404;BME280;50726;54.912;-8.392;2022-09-09T09:03:30;100386.09;;;37.54;73.15
64404;BME280;50726;54.912;-8.392;2022-09-09T09:11:48;100389.50;;;38.89;70.36
64404;BME280;50726;54.912;-8.392;2022-09-09T09:14:24;100385.88;;;41.29;61.59
64404;BME280;50726;54.912;-8.392;2022-09-09T09:19:22;100398.13;;;38.48;68.87
64404;BME280;50726;54.912;-8.392;2022-09-09T09:21:57;100398.00;;;37.28;71.40
64404;BME280;50726;54.912;-8.392;2022-09-09T09:24:52;100399.44;;;39.32;69.47
64404;BME280;50726;54.912;-8.392;2022-09-09T09:30:34;100410.81;;;38.43;71.76
64404;BME280;50726;54.912;-8.392;2022-09-09T09:33:21;100411.00;;;38.22;70.19
64404;BME280;50726;54.912;-8.392;2022-09-09T09:35:50;100423.53;;;37.72;71.33
64404;BME280;50726;54.912;-8.392;2022-09-09T09:38:22;100430.69;;;36.62;75.02
64404;BME280;50726;54.912;-8.392;2022-09-09T09:40:55;100435.69;;;38.53;70.01
64404;BME280;50726;54.912;-8.392;2022-09-09T09:43:34;100424.22;;;39.68;66.20
64404;BME280;50726;54.912;-8.392;2022-09-09T09:46:00;100431.44;;;39.32;68.46
64404;BME280;50726;54.912;-8.392;2022-09-09T09:48:28;100435.41;;;39.17;67.29
64404;BME280;50726;54.912;-8.392;2022-09-09T09:50:58;100439.00;;;38.80;67.42
64404;BME280;50726;54.912;-8.392;2022-09-09T09:53:28;100442.88;;;39.59;67.04
64404;BME280;50726;54.912;-8.392;2022-09-09T09:55:57;100433.59;;;39.60;66.57
64404;BME280;50726;54.912;-8.392;2022-09-09T09:58:25;100444.81;;;39.71;65.35
64404;BME280;50726;54.912;-8.392;2022-09-09T10:00:52;100448.50;;;39.46;65.53
64404;BME280;50726;54.912;-8.392;2022-09-09T10:03:32;100442.91;;;38.47;67.43
64404;BME280;50726;54.912;-8.392;2022-09-09T10:06:03;100457.97;;;37.28;71.95
64404;BME280;50726;54.912;-8.392;2022-09-09T10:08:33;100469.03;;;37.79;70.70
64404;BME280;50726;54.912;-8.392;2022-09-09T10:25:10;100479.91;;;38.43;68.35
64404;BME280;50726;54.912;-8.392;2022-09-09T10:33:10;100485.31;;;41.36;62.02
64404;BME280;50726;54.912;-8.392;2022-09-09T10:35:58;100476.13;;;40.53;61.31
64404;BME280;50726;54.912;-8.392;2022-09-09T10:38:40;100490.34;;;39.16;66.49
64404;BME280;50726;54.912;-8.392;2022-09-09T10:49:24;100498.22;;;37.78;69.92
64404;BME280;50726;54.912;-8.392;2022-09-09T10:55:12;100505.69;;;39.17;69.34
64404;BME280;50726;54.912;-8.392;2022-09-09T10:57:42;100518.41;;;37.70;71.99
64404;BME280;50726;54.912;-8.392;2022-09-09T11:00:40;100528.81;;;37.41;71.22
64404;BME280;50726;54.912;-8.392;2022-09-09T11:03:17;100518.41;;;38.03;71.38
64404;BME280;50726;54.912;-8.392;2022-09-09T11:05:46;100528.09;;;36.93;76.19
64404;BME280;50726;54.912;-8.392;2022-09-09T11:08:31;100515.38;;;37.40;74.64
64404;BME280;50726;54.912;-8.392;2022-09-09T11:16:04;100516.88;;;37.81;72.85
64404;BME280;50726;54.912;-8.392;2022-09-09T11:18:39;100521.06;;;37.84;73.33
64404;BME280;50726;54.912;-8.392;2022-09-09T11:21:14;100528.41;;;38.73;71.91
64404;BME280;50726;54.912;-8.392;2022-09-09T11:23:49;100532.44;;;39.33;71.71
64404;BME280;50726;54.912;-8.392;2022-09-09T11:26:46;100534.84;;;37.50;74.10
64404;BME280;50726;54.912;-8.392;2022-09-09T11:35:44;100535.88;;;40.21;65.37
64404;BME280;50726;54.912;-8.392;2022-09-09T11:38:39;100529.25;;;41.53;64.03
64404;BME280;50726;54.912;-8.392;2022-09-09T11:41:08;100531.19;;;39.29;68.75
64404;BME280;50726;54.912;-8.392;2022-09-09T11:43:50;100523.06;;;39.60;68.98
64404;BME280;50726;54.912;-8.392;2022-09-09T11:46:32;100547.34;;;38.17;73.17
64404;BME280;50726;54.912;-8.392;2022-09-09T11:49:03;100555.81;;;37.56;76.46
64404;BME280;50726;54.912;-8.392;2022-09-09T11:51:31;100541.81;;;39.38;71.65
64404;BME280;50726;54.912;-8.392;2022-09-09T11:53:59;100568.78;;;38.13;77.64
64404;BME280;50726;54.912;-8.392;2022-09-09T11:56:41;100564.78;;;37.11;78.46
64404;BME280;50726;54.912;-8.392;2022-09-09T11:59:25;100559.25;;;38.80;73.64
64404;BME280;50726;54.912;-8.392;2022-09-09T12:04:44;100545.72;;;38.03;76.84
64404;BME280;50726;54.912;-8.392;2022-09-09T12:07:36;100546.56;;;38.10;75.87
64404;BME280;50726;54.912;-8.392;2022-09-09T12:10:20;100562.00;;;38.48;72.92
64404;BME280;50726;54.912;-8.392;2022-09-09T12:12:47;100551.44;;;39.10;71.06
64404;BME280;50726;54.912;-8.392;2022-09-09T12:15:21;100558.69;;;36.75;76.55
64404;BME280;50726;54.912;-8.392;2022-09-09T12:17:49;100562.44;;;37.08;75.51
64404;BME280;50726;54.912;-8.392;2022-09-09T12:20:20;100565.03;;;38.08;76.16
64404;BME280;50726;54.912;-8.392;2022-09-09T12:33:34;100569.66;;;37.55;78.63
64404;BME280;50726;54.912;-8.392;2022-09-09T12:36:00;100573.53;;;36.25;80.17
64404;BME280;50726;54.912;-8.392;2022-09-09T12:38:31;100578.50;;;37.43;79.71
64404;BME280;50726;54.912;-8.392;2022-09-09T12:40:59;100586.50;;;37.97;78.58
64404;BME280;50726;54.912;-8.392;2022-09-09T12:43:27;100574.69;;;37.58;77.99
64404;BME280;50726;54.912;-8.392;2022-09-09T12:46:03;100573.56;;;37.06;79.69
64404;BME280;50726;54.912;-8.392;2022-09-09T12:48:39;100576.56;;;37.57;77.36
64404;BME280;50726;54.912;-8.392;2022-09-09T12:51:23;100567.56;;;38.67;73.53
64404;BME280;50726;54.912;-8.392;2022-09-09T12:53:51;100571.97;;;39.12;72.22
64404;BME280;50726;54.912;-8.392;2022-09-09T12:56:22;100576.19;;;39.33;70.42
64404;BME280;50726;54.912;-8.392;2022-09-09T12:58:53;100587.28;;;38.44;75.75
64404;BME280;50726;54.912;-8.392;2022-09-09T13:01:40;100581.09;;;39.06;72.67
64404;BME280;50726;54.912;-8.392;2022-09-09T13:04:19;100578.28;;;39.31;71.22
64404;BME280;50726;54.912;-8.392;2022-09-09T13:06:45;100585.38;;;37.66;76.17
64404;BME280;50726;54.912;-8.392;2022-09-09T13:09:11;100588.78;;;38.39;71.54
64404;BME280;50726;54.912;-8.392;2022-09-09T13:11:42;100588.09;;;39.20;71.13
64404;BME280;50726;54.912;-8.392;2022-09-09T13:14:32;100593.78;;;39.00;71.32
64404;BME280;50726;54.912;-8.392;2022-09-09T13:17:01;100597.22;;;38.89;71.48
64404;BME280;50726;54.912;-8.392;2022-09-09T13:19:38;100604.06;;;38.15;75.00
64404;BME280;50726;54.912;-8.392;2022-09-09T13:22:34;100614.00;;;37.96;73.79
64404;BME280;50726;54.912;-8.392;2022-09-09T13:25:04;100615.97;;;38.53;73.29
64404;BME280;50726;54.912;-8.392;2022-09-09T13:27:33;100596.25;;;38.51;74.76
64404;BME280;50726;54.912;-8.392;2022-09-09T13:30:00;100604.03;;;38.79;71.92
64404;BME280;50726;54.912;-8.392;2022-09-09T13:32:26;100603.06;;;39.74;69.21
64404;BME280;50726;54.912;-8.392;2022-09-09T13:34:57;100607.94;;;40.76;65.39
64404;BME280;50726;54.912;-8.392;2022-09-09T13:37:26;100605.50;;;38.57;70.48
64404;BME280;50726;54.912;-8.392;2022-09-09T13:39:54;100591.38;;;38.85;72.67
64404;BME280;50726;54.912;-8.392;2022-09-09T13:42:27;100600.53;;;38.40;71.37
64404;BME280;50726;54.912;-8.392;2022-09-09T13:44:54;100575.53;;;38.11;74.66
64404;BME280;50726;54.912;-8.392;2022-09-09T13:47:47;100601.97;;;37.58;74.89
64404;BME280;50726;54.912;-8.392;2022-09-09T13:50:29;100591.69;;;39.40;68.59
64404;BME280;50726;54.912;-8.392;2022-09-09T13:52:56;100606.19;;;39.21;68.96
64404;BME280;50726;54.912;-8.392;2022-09-09T13:55:29;100603.00;;;39.43;68.67
64404;BME280;50726;54.912;-8.392;2022-09-09T13:57:59;100600.88;;;40.13;66.24
64404;BME280;50726;54.912;-8.392;2022-09-09T14:00:30;100596.41;;;39.70;63.66
64404;BME280;50726;54.912;-8.392;2022-09-09T14:02:56;100589.84;;;40.99;63.09
64404;BME280;50726;54.912;-8.392;2022-09-09T14:05:22;100611.84;;;41.93;60.26
64404;BME280;50726;54.912;-8.392;2022-09-09T14:07:48;100597.56;;;40.78;61.33
64404;BME280;50726;54.912;-8.392;2022-09-09T14:10:14;100591.50;;;40.21;62.99
64404;BME280;50726;54.912;-8.392;2022-09-09T14:12:40;100596.44;;;41.51;59.57
64404;BME280;50726;54.912;-8.392;2022-09-09T14:15:07;100587.78;;;44.42;53.97
64404;BME280;50726;54.912;-8.392;2022-09-09T14:17:35;100593.22;;;42.75;53.85
64404;BME280;50726;54.912;-8.392;2022-09-09T14:20:03;100603.22;;;42.99;54.79
64404;BME280;50726;54.912;-8.392;2022-09-09T14:22:31;100619.97;;;40.32;58.96
64404;BME280;50726;54.912;-8.392;2022-09-09T14:24:56;100605.09;;;40.94;59.51
64404;BME280;50726;54.912;-8.392;2022-09-09T14:27:24;100598.31;;;42.66;56.74
64404;BME280;50726;54.912;-8.392;2022-09-09T14:29:51;100603.47;;;39.59;62.13
64404;BME280;50726;54.912;-8.392;2022-09-09T14:32:16;100616.50;;;40.13;60.82
64404;BME280;50726;54.912;-8.392;2022-09-09T14:34:42;100615.91;;;40.23;61.71
64404;BME280;50726;54.912;-8.392;2022-09-09T14:37:08;100627.63;;;38.99;63.67
64404;BME280;50726;54.912;-8.392;2022-09-09T14:39:33;100615.38;;;39.27;61.80
64404;BME280;50726;54.912;-8.392;2022-09-09T14:41:59;100620.25;;;37.44;71.43
64404;BME280;50726;54.912;-8.392;2022-09-09T14:44:24;100612.50;;;39.59;60.13
64404;BME280;50726;54.912;-8.392;2022-09-09T14:46:50;100620.44;;;39.24;60.60
64404;BME280;50726;54.912;-8.392;2022-09-09T14:49:16;100621.75;;;40.69;58.17
64404;BME280;50726;54.912;-8.392;2022-09-09T14:51:41;100613.09;;;41.20;56.11
64404;BME280;50726;54.912;-8.392;2022-09-09T14:54:07;100620.66;;;39.03;63.14
64404;BME280;50726;54.912;-8.392;2022-09-09T14:56:34;100627.47;;;39.38;66.85